createdAt,value
2023-03-10T00:01:33.165Z,0.60
2023-03-10T00:04:01.658Z,0.60
2023-03-10T00:06:32.763Z,0.60
2023-03-10T00:09:00.108Z,0.60
2023-03-10T00:11:28.592Z,0.60
2023-03-10T00:13:55.959Z,0.50
2023-03-10T00:16:26.381Z,0.50
2023-03-10T00:18:54.478Z,0.50
2023-03-10T00:21:24.595Z,0.40
2023-03-10T00:23:52.335Z,0.40
2023-03-10T00:26:20.938Z,0.40
2023-03-10T00:28:48.481Z,0.40
2023-03-10T00:31:18.693Z,0.40
2023-03-10T00:33:46.186Z,0.40
2023-03-10T00:36:22.562Z,0.40
2023-03-10T00:38:50.690Z,0.40
2023-03-10T00:41:20.777Z,0.40
2023-03-10T00:43:49.535Z,0.40
2023-03-10T00:46:17.424Z,0.40
2023-03-10T00:48:44.979Z,0.40
2023-03-10T00:51:12.780Z,0.40
2023-03-10T00:53:40.914Z,0.50
2023-03-10T00:56:20.763Z,0.50
2023-03-10T00:58:54.792Z,0.50
2023-03-10T01:01:24.927Z,0.50
2023-03-10T01:03:54.191Z,0.50
2023-03-10T01:06:22.519Z,0.50
2023-03-10T01:08:50.096Z,0.60
2023-03-10T01:11:20.578Z,0.60
2023-03-10T01:13:48.704Z,0.60
2023-03-10T01:16:16.448Z,0.60
2023-03-10T01:18:44.602Z,0.60
2023-03-10T01:21:22.048Z,0.60
2023-03-10T01:23:49.702Z,0.60
2023-03-10T01:26:19.011Z,0.60
2023-03-10T01:28:48.608Z,0.60
2023-03-10T01:31:17.675Z,0.60
2023-03-10T01:33:46.295Z,0.60
2023-03-10T01:36:18.061Z,0.60
2023-03-10T01:38:47.248Z,0.60
2023-03-10T01:41:15.425Z,0.60
2023-03-10T01:43:47.926Z,0.60
2023-03-10T01:46:33.723Z,0.60
2023-03-10T01:49:10.737Z,0.60
2023-03-10T01:51:39.642Z,0.60
2023-03-10T01:54:11.163Z,0.60
2023-03-10T01:56:39.497Z,0.60
2023-03-10T01:59:09.006Z,0.60
2023-03-10T02:01:37.251Z,0.60
2023-03-10T02:04:10.436Z,0.60
2023-03-10T02:06:42.008Z,0.60
2023-03-10T02:09:09.942Z,0.60
2023-03-10T02:11:38.400Z,0.60
2023-03-10T02:14:06.435Z,0.60
2023-03-10T02:16:34.430Z,0.60
2023-03-10T02:19:06.055Z,0.60
2023-03-10T02:21:53.121Z,0.60
2023-03-10T02:24:45.307Z,0.60
2023-03-10T02:27:22.744Z,0.50
2023-03-10T02:30:07.880Z,0.50
2023-03-10T02:32:46.706Z,0.50
2023-03-10T02:35:13.967Z,0.50
2023-03-10T02:37:53.146Z,0.50
2023-03-10T02:40:40.299Z,0.40
2023-03-10T02:43:25.834Z,0.40
2023-03-10T02:46:02.693Z,0.40
2023-03-10T02:48:37.756Z,0.30
2023-03-10T02:51:17.213Z,0.30
2023-03-10T02:53:44.544Z,0.30
2023-03-10T02:56:13.536Z,0.30
2023-03-10T02:58:43.063Z,0.30
2023-03-10T03:01:10.660Z,0.30
2023-03-10T03:03:41.262Z,0.20
2023-03-10T03:06:09.860Z,0.20
2023-03-10T03:08:37.216Z,0.20
2023-03-10T03:11:06.945Z,0.20
2023-03-10T03:13:34.235Z,0.20
2023-03-10T03:16:01.515Z,0.20
2023-03-10T03:18:29.211Z,0.20
2023-03-10T03:20:56.593Z,0.20
2023-03-10T03:23:23.862Z,0.20
2023-03-10T03:25:52.585Z,0.20
2023-03-10T03:28:22.084Z,0.20
2023-03-10T03:30:51.504Z,0.20
2023-03-10T03:33:18.917Z,0.20
2023-03-10T03:35:47.074Z,0.20
2023-03-10T03:38:17.302Z,0.10
2023-03-10T03:40:45.454Z,0.10
2023-03-10T03:43:15.040Z,0.10
2023-03-10T03:45:43.894Z,0.10
2023-03-10T03:48:14.054Z,0.10
2023-03-10T03:50:42.082Z,0.10
2023-03-10T03:53:19.314Z,0.10
2023-03-10T03:55:46.620Z,0.10
2023-03-10T03:58:13.962Z,0.10
2023-03-10T04:00:41.308Z,0.10
2023-03-10T04:03:10.587Z,0.10
2023-03-10T04:05:38.922Z,0.10
2023-03-10T04:08:07.057Z,0.10
2023-03-10T04:10:34.638Z,0.10
2023-03-10T04:13:02.697Z,0.10
2023-03-10T04:15:30.732Z,0.10
2023-03-10T04:17:59.688Z,0.10
2023-03-10T04:20:27.923Z,0.10
2023-03-10T04:22:55.295Z,0.10
2023-03-10T04:25:28.442Z,0.10
2023-03-10T04:27:58.136Z,0.10
2023-03-10T04:30:29.496Z,0.10
2023-03-10T04:33:02.091Z,0.10
2023-03-10T04:35:31.611Z,0.10
2023-03-10T04:38:00.574Z,0.10
2023-03-10T04:40:29.810Z,0.10
2023-03-10T04:42:57.053Z,0.10
2023-03-10T04:45:24.556Z,0.00
2023-03-10T04:47:53.856Z,0.10
2023-03-10T04:50:22.374Z,0.10
2023-03-10T04:52:50.802Z,0.10
2023-03-10T04:55:22.280Z,0.10
2023-03-10T04:57:49.994Z,0.10
2023-03-10T05:00:17.942Z,0.10
2023-03-10T05:02:45.496Z,0.10
2023-03-10T05:05:13.613Z,0.10
2023-03-10T05:07:44.536Z,0.10
2023-03-10T05:10:12.376Z,0.00
2023-03-10T05:12:39.973Z,0.10
2023-03-10T05:15:08.510Z,0.10
2023-03-10T05:17:36.251Z,0.00
2023-03-10T05:20:05.295Z,0.10
2023-03-10T05:22:32.751Z,0.10
2023-03-10T05:25:00.295Z,0.10
2023-03-10T05:27:27.645Z,0.10
2023-03-10T05:29:55.188Z,0.10
2023-03-10T05:32:26.322Z,0.10
2023-03-10T05:34:54.954Z,0.10
2023-03-10T05:37:22.408Z,0.10
2023-03-10T05:39:50.134Z,0.10
2023-03-10T05:42:21.087Z,0.10
2023-03-10T05:44:49.120Z,0.10
2023-03-10T05:47:19.298Z,0.10
2023-03-10T05:49:47.595Z,0.10
2023-03-10T05:52:15.459Z,0.10
2023-03-10T05:54:44.098Z,0.10
2023-03-10T05:57:14.067Z,0.10
2023-03-10T05:59:42.662Z,0.10
2023-03-10T06:02:10.041Z,0.10
2023-03-10T06:04:38.150Z,0.10
2023-03-10T06:07:05.772Z,0.10
2023-03-10T06:09:33.071Z,0.10
2023-03-10T06:12:01.260Z,0.10
2023-03-10T06:14:28.498Z,0.10
2023-03-10T06:16:56.254Z,0.10
2023-03-10T06:19:24.560Z,0.10
2023-03-10T06:21:52.194Z,0.10
2023-03-10T06:24:20.129Z,0.10
2023-03-10T06:26:47.308Z,0.10
2023-03-10T06:29:14.511Z,0.10
2023-03-10T06:31:42.100Z,0.10
2023-03-10T06:34:09.398Z,0.10
2023-03-10T06:36:39.030Z,0.10
2023-03-10T06:39:07.336Z,0.10
2023-03-10T06:41:36.294Z,0.10
2023-03-10T06:44:04.125Z,0.10
2023-03-10T06:46:31.441Z,0.20
2023-03-10T06:48:58.624Z,0.20
2023-03-10T06:51:26.296Z,0.20
2023-03-10T06:53:55.034Z,0.20
2023-03-10T06:56:22.367Z,0.20
2023-03-10T06:58:49.867Z,0.20
2023-03-10T07:01:31.874Z,0.20
2023-03-10T07:04:00.924Z,0.30
2023-03-10T07:06:28.999Z,0.30
2023-03-10T07:08:56.418Z,0.30
2023-03-10T07:11:25.241Z,0.30
2023-03-10T07:13:53.789Z,0.30
2023-03-10T07:16:22.081Z,0.30
2023-03-10T07:18:49.292Z,0.30
2023-03-10T07:21:20.003Z,0.30
2023-03-10T07:23:47.394Z,0.30
2023-03-10T07:26:16.344Z,0.30
2023-03-10T07:28:43.602Z,0.30
2023-03-10T07:31:12.578Z,0.30
2023-03-10T07:33:40.060Z,0.30
2023-03-10T07:36:10.292Z,0.30
2023-03-10T07:38:37.599Z,0.30
2023-03-10T07:41:14.325Z,0.30
2023-03-10T07:43:41.637Z,0.30
2023-03-10T07:46:11.449Z,0.30
2023-03-10T07:48:39.334Z,0.30
2023-03-10T07:51:07.021Z,0.30
2023-03-10T07:53:35.079Z,0.30
2023-03-10T07:56:06.821Z,0.30
2023-03-10T07:58:34.439Z,0.40
2023-03-10T08:01:02.913Z,0.40
2023-03-10T08:03:30.680Z,0.40
2023-03-10T08:05:59.661Z,0.40
2023-03-10T08:08:26.991Z,0.40
2023-03-10T08:11:05.471Z,0.40
2023-03-10T08:13:33.229Z,0.40
2023-03-10T08:16:01.215Z,0.40
2023-03-10T08:18:29.428Z,0.50
2023-03-10T08:20:57.177Z,0.50
2023-03-10T08:23:25.284Z,0.50
2023-03-10T08:25:52.513Z,0.50
2023-03-10T08:28:19.733Z,0.50
2023-03-10T08:31:02.893Z,0.50
2023-03-10T08:33:30.831Z,0.50
2023-03-10T08:36:02.789Z,0.50
2023-03-10T08:38:30.960Z,0.50
2023-03-10T08:40:58.319Z,0.50
2023-03-10T08:43:25.889Z,0.50
2023-03-10T08:45:53.964Z,0.50
2023-03-10T08:48:21.143Z,0.50
2023-03-10T08:50:48.428Z,0.50
2023-03-10T08:53:19.725Z,0.50
2023-03-10T08:55:47.004Z,0.50
2023-03-10T08:58:14.237Z,0.50
2023-03-10T09:00:42.873Z,0.50
2023-03-10T09:03:12.398Z,0.50
2023-03-10T09:05:41.244Z,0.50
2023-03-10T09:08:08.628Z,0.50
2023-03-10T09:10:36.956Z,0.50
2023-03-10T09:13:13.756Z,0.50
2023-03-10T09:15:41.742Z,0.50
2023-03-10T09:18:10.051Z,0.50
2023-03-10T09:20:39.176Z,0.50
2023-03-10T09:23:06.906Z,0.60
2023-03-10T09:25:34.181Z,0.60
2023-03-10T09:28:01.846Z,0.60
2023-03-10T09:30:29.026Z,0.60
2023-03-10T09:32:56.737Z,0.60
2023-03-10T09:35:23.986Z,0.70
2023-03-10T09:37:51.229Z,0.70
2023-03-10T09:40:24.260Z,0.70
2023-03-10T09:43:01.270Z,0.70
2023-03-10T09:45:42.882Z,0.80
2023-03-10T09:48:26.378Z,0.80
2023-03-10T09:50:56.446Z,0.80
2023-03-10T09:53:55.014Z,0.80
2023-03-10T09:56:33.821Z,0.80
2023-03-10T09:59:11.567Z,0.80
2023-03-10T10:01:44.221Z,0.80
2023-03-10T10:04:15.600Z,0.70
2023-03-10T10:06:46.605Z,0.80
2023-03-10T10:09:25.469Z,0.80
2023-03-10T10:11:52.917Z,0.80
2023-03-10T10:14:30.082Z,0.80
2023-03-10T10:17:01.299Z,0.90
2023-03-10T10:19:29.300Z,0.90
2023-03-10T10:22:41.272Z,0.90
2023-03-10T10:25:08.785Z,0.90
2023-03-10T10:27:37.259Z,0.90
2023-03-10T10:30:27.373Z,1.00
2023-03-10T10:33:03.682Z,1.00
2023-03-10T10:35:35.424Z,1.00
2023-03-10T10:38:13.252Z,1.00
2023-03-10T10:41:07.023Z,1.00
2023-03-10T10:43:43.380Z,1.00
2023-03-10T10:46:13.554Z,1.00
2023-03-10T10:48:45.934Z,1.00
2023-03-10T10:51:19.760Z,1.00
2023-03-10T10:53:48.268Z,1.10
2023-03-10T10:56:17.538Z,1.10
2023-03-10T10:59:00.054Z,1.10
2023-03-10T11:01:27.397Z,1.10
2023-03-10T11:04:08.254Z,1.10
2023-03-10T11:06:37.968Z,1.10
2023-03-10T11:09:20.609Z,1.10
2023-03-10T11:11:56.285Z,1.10
2023-03-10T11:14:47.227Z,1.10
2023-03-10T11:17:40.210Z,1.00
2023-03-10T11:20:23.790Z,1.00
2023-03-10T11:23:09.952Z,1.00
2023-03-10T11:25:55.632Z,1.00
2023-03-10T11:28:33.836Z,1.00
2023-03-10T11:31:26.847Z,1.00
2023-03-10T11:34:04.535Z,1.00
2023-03-10T11:36:56.705Z,1.00
2023-03-10T11:39:54.507Z,1.10
2023-03-10T11:42:45.364Z,1.20
2023-03-10T11:45:29.535Z,1.30
2023-03-10T11:48:34.089Z,1.50
2023-03-10T11:51:03.738Z,1.70
2023-03-10T11:53:44.864Z,1.70
2023-03-10T11:56:15.329Z,1.70
2023-03-10T11:59:10.715Z,1.70
2023-03-10T12:01:46.393Z,1.70
2023-03-10T12:04:29.725Z,1.70
2023-03-10T12:07:12.109Z,1.70
2023-03-10T12:09:43.629Z,1.70
2023-03-10T12:12:19.540Z,1.60
2023-03-10T12:14:47.454Z,1.60
2023-03-10T12:17:16.388Z,1.60
2023-03-10T12:20:15.655Z,1.60
2023-03-10T12:22:57.514Z,1.60
2023-03-10T12:25:32.623Z,1.70
2023-03-10T12:28:24.150Z,1.60
2023-03-10T12:30:59.200Z,1.70
2023-03-10T12:33:34.000Z,1.80
2023-03-10T12:36:18.549Z,1.90
2023-03-10T12:38:59.429Z,2.00
2023-03-10T12:41:26.633Z,2.30
2023-03-10T12:44:01.129Z,2.50
2023-03-10T12:46:41.536Z,2.70
2023-03-10T12:49:21.535Z,3.00
2023-03-10T12:51:55.376Z,3.10
2023-03-10T12:54:41.636Z,3.00
2023-03-10T12:57:17.041Z,2.80
2023-03-10T13:00:22.953Z,2.70
2023-03-10T13:03:05.032Z,2.70
2023-03-10T13:05:35.535Z,2.60
2023-03-10T13:08:12.471Z,2.60
2023-03-10T13:10:40.074Z,2.60
2023-03-10T13:13:13.146Z,2.60
2023-03-10T13:15:40.414Z,2.60
2023-03-10T13:18:12.106Z,2.50
2023-03-10T13:20:39.614Z,2.50
2023-03-10T13:23:20.849Z,2.50
2023-03-10T13:25:56.208Z,2.40
2023-03-10T13:28:25.146Z,2.40
2023-03-10T13:30:52.630Z,2.30
2023-03-10T13:33:26.019Z,2.30
2023-03-10T13:35:53.391Z,2.30
2023-03-10T13:38:24.331Z,2.40
2023-03-10T13:40:57.353Z,2.60
2023-03-10T13:43:37.528Z,2.70
2023-03-10T13:46:17.319Z,2.90
2023-03-10T13:48:46.621Z,2.90
2023-03-10T13:51:19.808Z,3.00
2023-03-10T13:53:52.654Z,2.90
2023-03-10T13:56:34.937Z,2.80
2023-03-10T13:59:03.448Z,2.70
2023-03-10T14:01:38.910Z,2.60
2023-03-10T14:04:09.059Z,2.60
2023-03-10T14:06:37.186Z,2.70
2023-03-10T14:09:24.836Z,2.70
2023-03-10T14:11:55.999Z,2.70
2023-03-10T14:14:32.404Z,2.60
2023-03-10T14:17:05.670Z,2.50
2023-03-10T14:19:46.536Z,2.50
2023-03-10T14:22:36.340Z,2.40
2023-03-10T14:25:13.664Z,2.30
2023-03-10T14:27:43.729Z,2.20
2023-03-10T14:30:37.723Z,2.20
2023-03-10T14:33:14.273Z,2.10
2023-03-10T14:35:42.909Z,2.00
2023-03-10T14:38:10.122Z,2.00
2023-03-10T14:40:45.964Z,2.00
2023-03-10T14:43:18.525Z,1.90
2023-03-10T14:45:47.436Z,1.80
2023-03-10T14:48:20.499Z,1.70
2023-03-10T14:50:48.016Z,1.70
2023-03-10T14:53:18.569Z,1.70
2023-03-10T14:55:48.281Z,1.70
2023-03-10T14:58:21.856Z,1.70
2023-03-10T15:00:50.089Z,1.80
2023-03-10T15:03:17.371Z,1.70
2023-03-10T15:05:48.930Z,1.70
2023-03-10T15:08:18.050Z,1.70
2023-03-10T15:10:48.248Z,1.70
2023-03-10T15:13:18.127Z,1.70
2023-03-10T15:15:46.717Z,1.70
2023-03-10T15:18:16.841Z,1.60
2023-03-10T15:20:44.651Z,1.60
2023-03-10T15:23:16.556Z,1.60
2023-03-10T15:25:46.353Z,1.50
2023-03-10T15:28:13.884Z,1.50
2023-03-10T15:30:41.742Z,1.50
2023-03-10T15:33:10.661Z,1.40
2023-03-10T15:35:38.800Z,1.40
2023-03-10T15:38:06.092Z,1.30
2023-03-10T15:40:34.682Z,1.30
2023-03-10T15:43:01.966Z,1.30
2023-03-10T15:45:30.832Z,1.30
2023-03-10T15:47:58.485Z,1.30
2023-03-10T15:50:26.414Z,1.30
2023-03-10T15:52:56.050Z,1.30
2023-03-10T15:55:23.771Z,1.30
2023-03-10T15:57:51.664Z,1.30
2023-03-10T16:00:44.717Z,1.30
2023-03-10T16:03:17.709Z,1.30
2023-03-10T16:05:48.050Z,1.40
2023-03-10T16:08:15.369Z,1.40
2023-03-10T16:10:52.215Z,1.40
2023-03-10T16:13:19.628Z,1.40
2023-03-10T16:15:47.016Z,1.40
2023-03-10T16:18:14.717Z,1.30
2023-03-10T16:20:42.003Z,1.30
2023-03-10T16:23:09.230Z,1.20
2023-03-10T16:25:39.688Z,1.20
2023-03-10T16:28:07.179Z,1.10
2023-03-10T16:30:35.540Z,1.10
2023-03-10T16:33:02.815Z,1.10
2023-03-10T16:35:31.427Z,1.00
2023-03-10T16:38:00.856Z,1.00
2023-03-10T16:40:28.547Z,0.90
2023-03-10T16:42:55.717Z,0.90
2023-03-10T16:45:22.869Z,0.90
2023-03-10T16:47:50.057Z,0.80
2023-03-10T16:50:17.491Z,0.70
2023-03-10T16:53:09.801Z,0.60
2023-03-10T16:55:37.358Z,0.60
2023-03-10T16:58:04.651Z,0.50
2023-03-10T17:00:33.146Z,0.50
2023-03-10T17:03:01.442Z,0.40
2023-03-10T17:05:28.664Z,0.40
2023-03-10T17:08:02.188Z,0.40
2023-03-10T17:10:30.305Z,0.30
2023-03-10T17:12:58.110Z,0.30
2023-03-10T17:15:25.507Z,0.30
2023-03-10T17:17:52.902Z,0.30
2023-03-10T17:20:20.423Z,0.30
2023-03-10T17:22:47.608Z,0.20
2023-03-10T17:25:14.852Z,0.20
2023-03-10T17:27:43.287Z,0.20
2023-03-10T17:30:11.697Z,0.20
2023-03-10T17:32:38.935Z,0.20
2023-03-10T17:35:06.493Z,0.20
2023-03-10T17:37:33.689Z,0.10
2023-03-10T17:40:00.886Z,0.10
2023-03-10T17:42:29.726Z,0.10
2023-03-10T17:44:56.877Z,0.10
2023-03-10T17:47:24.594Z,0.10
2023-03-10T17:49:51.846Z,0.10
2023-03-10T17:52:19.133Z,0.10
2023-03-10T17:54:46.425Z,0.10
2023-03-10T17:57:13.925Z,0.10
2023-03-10T17:59:41.234Z,0.10
2023-03-10T18:02:11.646Z,0.10
2023-03-10T18:04:40.884Z,0.10
2023-03-10T18:07:08.526Z,0.10
2023-03-10T18:09:35.899Z,0.10
2023-03-10T18:12:03.320Z,0.10
2023-03-10T18:14:30.688Z,0.10
2023-03-10T18:16:58.092Z,0.10
2023-03-10T18:19:25.701Z,0.10
2023-03-10T18:21:53.317Z,0.10
2023-03-10T18:24:20.476Z,0.10
2023-03-10T18:26:47.656Z,0.10
2023-03-10T18:29:15.138Z,0.10
2023-03-10T18:31:42.810Z,0.10
2023-03-10T18:34:10.112Z,0.10
2023-03-10T18:36:37.488Z,0.10
2023-03-10T18:39:07.113Z,0.10
2023-03-10T18:41:35.266Z,0.10
2023-03-10T18:44:02.627Z,0.10
2023-03-10T18:46:30.461Z,0.10
2023-03-10T18:48:58.077Z,0.10
2023-03-10T18:51:26.977Z,0.10
2023-03-10T18:53:54.919Z,0.10
2023-03-10T18:56:25.587Z,0.10
2023-03-10T18:58:53.885Z,0.10
2023-03-10T19:01:21.708Z,0.10
2023-03-10T19:03:49.391Z,0.10
2023-03-10T19:06:16.719Z,0.10
2023-03-10T19:08:44.169Z,0.10
2023-03-10T19:11:11.883Z,0.20
2023-03-10T19:13:40.743Z,0.20
2023-03-10T19:16:09.371Z,0.10
2023-03-10T19:18:37.559Z,0.10
2023-03-10T19:21:05.807Z,0.20
2023-03-10T19:23:34.831Z,0.10
2023-03-10T19:26:03.838Z,0.10
2023-03-10T19:28:31.338Z,0.10
2023-03-10T19:30:59.496Z,0.10
2023-03-10T19:33:27.030Z,0.10
2023-03-10T19:36:06.294Z,0.10
2023-03-10T19:38:38.303Z,0.20
2023-03-10T19:41:06.674Z,0.20
2023-03-10T19:43:39.281Z,0.10
2023-03-10T19:46:08.699Z,0.10
2023-03-10T19:48:36.455Z,0.10
2023-03-10T19:51:05.509Z,0.10
2023-03-10T19:53:34.198Z,0.10
2023-03-10T19:56:06.913Z,0.10
2023-03-10T19:58:34.201Z,0.10
2023-03-10T20:01:01.559Z,0.10
2023-03-10T20:03:31.540Z,0.10
2023-03-10T20:05:58.802Z,0.10
2023-03-10T20:08:26.159Z,0.10
2023-03-10T20:10:53.454Z,0.10
2023-03-10T20:13:21.059Z,0.20
2023-03-10T20:15:49.289Z,0.10
2023-03-10T20:18:18.347Z,0.10
2023-03-10T20:20:45.605Z,0.20
2023-03-10T20:23:13.472Z,0.10
2023-03-10T20:25:41.130Z,0.10
2023-03-10T20:28:08.627Z,0.20
2023-03-10T20:30:37.351Z,0.10
2023-03-10T20:33:04.538Z,0.10
2023-03-10T20:35:33.452Z,0.10
2023-03-10T20:38:00.892Z,0.10
2023-03-10T20:40:28.577Z,0.10
2023-03-10T20:42:59.381Z,0.10
2023-03-10T20:45:27.178Z,0.10
2023-03-10T20:47:54.958Z,0.10
2023-03-10T20:50:22.442Z,0.10
2023-03-10T20:52:50.292Z,0.10
2023-03-10T20:55:23.939Z,0.10
2023-03-10T20:57:53.895Z,0.10
2023-03-10T21:00:24.458Z,0.10
2023-03-10T21:02:53.350Z,0.10
2023-03-10T21:05:21.062Z,0.10
2023-03-10T21:07:50.360Z,0.10
2023-03-10T21:10:18.040Z,0.10
2023-03-10T21:12:45.726Z,0.10
2023-03-10T21:15:16.083Z,0.10
2023-03-10T21:17:43.746Z,0.10
2023-03-10T21:20:15.529Z,0.10
2023-03-10T21:22:43.638Z,0.10
2023-03-10T21:25:16.380Z,0.10
2023-03-10T21:27:47.061Z,0.10
2023-03-10T21:30:15.128Z,0.10
2023-03-10T21:32:42.785Z,0.10
2023-03-10T21:35:14.173Z,0.10
2023-03-10T21:37:44.038Z,0.10
2023-03-10T21:40:14.802Z,0.10
2023-03-10T21:42:42.104Z,0.20
2023-03-10T21:45:13.212Z,0.10
2023-03-10T21:47:40.566Z,0.10
2023-03-10T21:50:21.224Z,0.20
2023-03-10T21:52:48.661Z,0.10
2023-03-10T21:55:22.760Z,0.10
2023-03-10T21:57:51.046Z,0.10
2023-03-10T22:00:20.018Z,0.10
2023-03-10T22:02:47.804Z,0.10
2023-03-10T22:05:16.853Z,0.10
2023-03-10T22:07:45.135Z,0.10
2023-03-10T22:10:13.939Z,0.10
2023-03-10T22:12:41.532Z,0.10
2023-03-10T22:15:14.010Z,0.10
2023-03-10T22:17:41.240Z,0.10
2023-03-10T22:20:12.380Z,0.10
2023-03-10T22:22:39.554Z,0.10
2023-03-10T22:25:07.206Z,0.10
2023-03-10T22:27:34.436Z,0.10
2023-03-10T22:30:02.122Z,0.10
2023-03-10T22:32:29.343Z,0.10
2023-03-10T22:34:56.871Z,0.10
2023-03-10T22:37:24.107Z,0.10
2023-03-10T22:39:51.260Z,0.10
2023-03-10T22:42:18.595Z,0.10
2023-03-10T22:44:45.760Z,0.10
2023-03-10T22:47:12.933Z,0.10
2023-03-10T22:49:41.367Z,0.10
2023-03-10T22:52:09.132Z,0.10
2023-03-10T22:54:36.595Z,0.10
2023-03-10T22:57:03.944Z,0.10
2023-03-10T22:59:31.433Z,0.00
2023-03-10T23:01:58.942Z,0.10
2023-03-10T23:04:26.146Z,0.10
2023-03-10T23:06:53.275Z,0.10
2023-03-10T23:09:20.648Z,0.10
2023-03-10T23:11:48.912Z,0.10
2023-03-10T23:14:16.113Z,0.10
2023-03-10T23:16:43.399Z,0.10
2023-03-10T23:19:11.338Z,0.10
2023-03-10T23:21:39.354Z,0.00
2023-03-10T23:24:07.124Z,0.10
2023-03-10T23:26:36.553Z,0.10
2023-03-10T23:29:04.408Z,0.10
2023-03-10T23:31:31.739Z,0.10
2023-03-10T23:33:58.944Z,0.10
2023-03-10T23:36:26.285Z,0.00
2023-03-10T23:38:54.692Z,0.00
2023-03-10T23:41:21.893Z,0.00
2023-03-10T23:43:51.487Z,0.00
2023-03-10T23:46:21.729Z,0.00
2023-03-10T23:48:49.166Z,0.00
2023-03-10T23:51:17.204Z,0.00
2023-03-10T23:53:44.772Z,0.00
2023-03-10T23:56:12.271Z,0.00
2023-03-10T23:58:40.136Z,0.00
